Time;durP1;ratioP1;P1;durP2;ratioP2;P2;SDS_P1;SDS_P2;PMS_P1;PMS_P2;Temp;Humidity;BMP_temperature;BMP_pressure;BME280_temperature;BME280_humidity;BME280_pressure;Samples;Min_cycle;Max_cycle;Signal;HPM_P1;HPM_P2
2021/06/26 00:00:06;;;;;;;23.13;16.25;;;18.90;82.80;;;;;;4981803;28;20190;-84
2021/06/26 00:02:31;;;;;;;23.25;15.43;;;19.10;82.80;;;;;;4982027;28;20563;-82
2021/06/26 00:04:57;;;;;;;22.40;15.80;;;19.10;82.70;;;;;;4982906;28;20218;-83
2021/06/26 00:07:23;;;;;;;21.87;16.00;;;19.00;82.70;;;;;;4983001;28;20194;-83
2021/06/26 00:09:48;;;;;;;20.83;14.50;;;19.10;82.50;;;;;;5000024;28;20631;-82
2021/06/26 00:12:14;;;;;;;23.13;14.60;;;19.00;82.50;;;;;;4982332;28;20217;-83
2021/06/26 00:14:40;;;;;;;24.50;18.17;;;18.90;82.70;;;;;;5000519;28;20290;-82
2021/06/26 00:17:06;;;;;;;22.10;16.33;;;18.80;83.30;;;;;;4983541;28;20422;-82
2021/06/26 00:19:32;;;;;;;25.00;18.60;;;18.90;83.70;;;;;;5001512;28;20175;-82
2021/06/26 00:21:57;;;;;;;25.13;17.13;;;18.80;83.80;;;;;;4986933;28;20199;-83
2021/06/26 00:24:23;;;;;;;23.87;16.00;;;19.00;83.30;;;;;;4988041;28;20426;-83
2021/06/26 00:26:50;;;;;;;26.20;16.43;;;19.10;82.70;;;;;;4987173;28;20198;-83
2021/06/26 00:29:16;;;;;;;25.73;16.95;;;18.90;82.70;;;;;;4986511;28;20595;-84
2021/06/26 00:31:42;;;;;;;23.77;16.92;;;18.80;83.40;;;;;;5002524;28;20229;-83
2021/06/26 00:34:08;;;;;;;26.23;17.07;;;18.90;83.80;;;;;;5004744;28;20199;-83
2021/06/26 00:36:33;;;;;;;23.37;17.07;;;19.00;83.70;;;;;;4987569;28;20497;-82
2021/06/26 00:38:59;;;;;;;22.17;15.97;;;18.90;83.50;;;;;;4986688;28;20665;-84
2021/06/26 00:41:25;;;;;;;22.00;16.23;;;19.00;83.20;;;;;;4985273;28;20195;-83
2021/06/26 00:43:51;;;;;;;23.20;16.70;;;19.10;82.80;;;;;;4987883;28;20189;-82
2021/06/26 00:46:16;;;;;;;29.87;18.40;;;19.00;83.00;;;;;;4987573;28;20179;-83
2021/06/26 00:48:42;;;;;;;28.20;17.07;;;19.00;83.00;;;;;;4983744;28;20177;-83
2021/06/26 00:51:08;;;;;;;24.27;16.23;;;19.20;82.60;;;;;;4979970;28;20199;-83
2021/06/26 00:53:34;;;;;;;24.67;18.83;;;19.30;82.20;;;;;;4981307;28;20199;-83
2021/06/26 00:56:02;;;;;;;26.90;16.88;;;19.20;81.90;;;;;;4981548;28;20179;-83
2021/06/26 00:58:29;;;;;;;28.20;18.42;;;19.30;82.10;;;;;;4981053;28;20182;-82
2021/06/26 01:00:54;;;;;;;24.95;17.98;;;19.20;81.90;;;;;;4980103;28;20199;-83
2021/06/26 01:03:21;;;;;;;28.90;18.20;;;19.20;82.10;;;;;;4997973;28;20518;-82
2021/06/26 01:05:48;;;;;;;27.67;19.33;;;19.20;82.20;;;;;;4998955;28;20426;-83
2021/06/26 01:08:14;;;;;;;28.45;20.70;;;19.20;82.00;;;;;;4997759;28;20261;-83
2021/06/26 01:10:40;;;;;;;32.75;20.60;;;19.10;82.10;;;;;;4980056;28;20180;-83
2021/06/26 01:13:06;;;;;;;34.63;24.25;;;19.00;82.40;;;;;;4980026;28;20776;-83
2021/06/26 01:15:32;;;;;;;37.97;22.33;;;18.90;83.00;;;;;;4997544;28;20199;-83
2021/06/26 01:17:58;;;;;;;34.50;20.73;;;18.90;83.30;;;;;;4980493;28;20513;-83
2021/06/26 01:20:25;;;;;;;36.63;23.83;;;19.10;83.00;;;;;;4997457;28;20195;-84
2021/06/26 01:23:00;;;;;;;36.30;22.48;;;19.10;82.60;;;;;;4981977;28;20191;-83
2021/06/26 01:25:28;;;;;;;44.92;24.58;;;19.10;82.50;;;;;;5002749;28;20221;-83
2021/06/26 01:27:56;;;;;;;36.55;23.52;;;19.00;82.50;;;;;;4989551;28;20206;-82
2021/06/26 01:30:28;;;;;;;40.60;23.67;;;18.90;82.80;;;;;;4984218;28;20245;-83
2021/06/26 01:32:53;;;;;;;40.80;25.65;;;18.70;83.40;;;;;;4983111;28;20629;-83
2021/06/26 01:35:20;;;;;;;39.93;28.07;;;18.70;84.00;;;;;;5001508;28;20179;-83
2021/06/26 01:37:46;;;;;;;47.00;26.83;;;18.80;84.20;;;;;;4980072;28;20183;-82
2021/06/26 01:40:17;;;;;;;49.43;30.10;;;18.90;84.20;;;;;;4978031;28;20186;-83
2021/06/26 01:42:43;;;;;;;42.75;27.63;;;18.90;84.00;;;;;;4980257;28;20469;-82
2021/06/26 01:45:09;;;;;;;43.97;28.08;;;18.90;83.90;;;;;;4997898;28;20702;-83
2021/06/26 01:47:35;;;;;;;49.83;28.75;;;18.80;84.00;;;;;;4980412;28;20183;-83
2021/06/26 01:50:02;;;;;;;52.07;30.27;;;18.90;84.00;;;;;;4997783;28;20183;-83
2021/06/26 01:52:28;;;;;;;52.70;30.40;;;19.10;83.40;;;;;;4979992;28;20218;-83
2021/06/26 01:54:54;;;;;;;58.23;32.27;;;19.10;83.10;;;;;;4980627;28;20250;-83
2021/06/26 01:57:19;;;;;;;45.93;28.53;;;19.10;82.80;;;;;;4996722;28;20176;-83
2021/06/26 01:59:46;;;;;;;54.40;32.20;;;19.00;82.80;;;;;;4996928;28;20190;-82
2021/06/26 02:02:11;;;;;;;56.03;30.75;;;19.20;82.70;;;;;;4980589;28;20223;-82
2021/06/26 02:04:37;;;;;;;52.07;31.10;;;19.20;82.50;;;;;;4983444;28;20183;-83
2021/06/26 02:07:03;;;;;;;48.50;30.30;;;19.10;82.60;;;;;;4966753;28;20180;-83
2021/06/26 02:09:29;;;;;;;53.63;32.80;;;19.00;82.70;;;;;;4965870;28;20199;-80
2021/06/26 02:11:55;;;;;;;58.25;32.75;;;18.90;83.30;;;;;;4967057;28;20583;-80
2021/06/26 02:14:21;;;;;;;59.97;33.30;;;19.00;83.10;;;;;;4967873;28;20212;-80
2021/06/26 02:16:47;;;;;;;54.00;32.85;;;19.10;82.90;;;;;;4967650;28;20531;-81
2021/06/26 02:19:12;;;;;;;57.37;31.63;;;19.00;82.70;;;;;;4964953;28;20176;-83
2021/06/26 02:21:41;;;;;;;54.93;33.07;;;18.80;83.20;;;;;;4974344;28;20442;-83
2021/06/26 02:24:07;;;;;;;54.83;32.42;;;18.90;83.50;;;;;;4984196;28;20183;-83
2021/06/26 02:26:33;;;;;;;50.75;30.27;;;19.00;83.50;;;;;;5001214;28;20182;-83
2021/06/26 02:28:59;;;;;;;52.67;31.90;;;18.90;83.50;;;;;;4984345;28;20175;-83
2021/06/26 02:31:24;;;;;;;59.70;33.13;;;18.90;83.80;;;;;;4986197;28;20294;-84
2021/06/26 02:33:50;;;;;;;52.73;31.80;;;18.90;83.90;;;;;;4989544;28;20652;-82
2021/06/26 02:36:16;;;;;;;49.63;32.23;;;18.80;84.00;;;;;;5002385;28;20230;-83
2021/06/26 02:38:41;;;;;;;60.93;32.90;;;18.90;84.30;;;;;;4985011;28;20606;-83
2021/06/26 02:41:07;;;;;;;52.30;30.67;;;18.90;84.30;;;;;;4983849;28;20199;-83
2021/06/26 02:43:33;;;;;;;46.73;28.90;;;19.00;84.10;;;;;;5001146;28;20206;-83
2021/06/26 02:45:58;;;;;;;52.87;31.33;;;19.10;83.40;;;;;;4983877;28;20183;-84
2021/06/26 02:48:24;;;;;;;54.17;31.13;;;19.10;82.80;;;;;;5001458;28;20522;-83
2021/06/26 02:50:50;;;;;;;52.07;30.00;;;18.90;82.90;;;;;;4999326;28;20287;-82
2021/06/26 02:53:16;;;;;;;49.60;30.23;;;19.00;83.30;;;;;;4982681;28;20242;-83
2021/06/26 02:55:41;;;;;;;48.87;27.90;;;19.10;83.10;;;;;;4998562;28;20187;-83
2021/06/26 02:58:07;;;;;;;45.40;28.07;;;19.20;82.60;;;;;;4982751;28;20418;-83
2021/06/26 03:00:33;;;;;;;50.20;29.23;;;19.10;82.50;;;;;;4998565;28;20183;-83
2021/06/26 03:02:59;;;;;;;57.57;32.27;;;19.00;82.60;;;;;;4982435;28;20222;-82
2021/06/26 03:05:24;;;;;;;55.70;31.30;;;19.10;82.50;;;;;;4982825;28;20422;-83
2021/06/26 03:07:54;;;;;;;55.07;31.83;;;19.10;82.50;;;;;;4982471;28;20917;-82
2021/06/26 03:10:20;;;;;;;56.83;31.50;;;19.00;82.60;;;;;;4981950;28;20183;-83
2021/06/26 03:12:46;;;;;;;60.38;33.10;;;18.90;83.10;;;;;;5000121;28;20210;-82
2021/06/26 03:15:13;;;;;;;47.55;28.40;;;18.70;84.20;;;;;;4998434;28;20262;-83
2021/06/26 03:17:38;;;;;;;42.15;25.05;;;18.60;84.90;;;;;;4982204;28;20179;-83
2021/06/26 03:20:06;;;;;;;35.77;23.40;;;18.60;85.20;;;;;;4982277;28;20186;-82
2021/06/26 03:22:31;;;;;;;28.95;19.70;;;18.70;85.40;;;;;;4981550;28;20281;-83
2021/06/26 03:24:57;;;;;;;24.13;14.40;;;18.80;85.20;;;;;;4982290;28;20627;-83
2021/06/26 03:27:23;;;;;;;20.77;14.53;;;18.60;84.90;;;;;;4999270;28;20175;-83
2021/06/26 03:29:49;;;;;;;18.47;13.20;;;18.60;84.80;;;;;;4981682;28;20614;-83
2021/06/26 03:32:15;;;;;;;16.00;12.40;;;18.60;84.80;;;;;;4981189;28;20614;-83
2021/06/26 03:34:41;;;;;;;16.40;12.00;;;18.60;84.80;;;;;;4981448;28;20458;-83
2021/06/26 03:37:06;;;;;;;15.73;11.20;;;18.50;84.90;;;;;;4988673;28;20453;-82
2021/06/26 03:39:32;;;;;;;20.13;14.23;;;18.50;84.90;;;;;;4985528;28;20438;-83
2021/06/26 03:41:58;;;;;;;21.07;12.57;;;18.40;85.00;;;;;;4997231;28;20226;-83
2021/06/26 03:44:23;;;;;;;17.23;12.30;;;18.40;85.20;;;;;;4997313;28;20179;-84
2021/06/26 03:46:49;;;;;;;19.50;13.03;;;18.50;85.30;;;;;;4979486;28;20653;-83
2021/06/26 03:49:15;;;;;;;21.47;14.57;;;18.50;85.30;;;;;;4979333;28;20653;-82
2021/06/26 03:51:41;;;;;;;16.53;12.43;;;18.50;85.20;;;;;;4981993;28;20230;-83
2021/06/26 03:54:07;;;;;;;13.68;11.50;;;18.60;85.10;;;;;;4984196;28;20203;-83
2021/06/26 03:56:33;;;;;;;17.53;11.20;;;18.60;85.00;;;;;;4985996;28;20245;-83
2021/06/26 03:59:00;;;;;;;15.13;10.70;;;18.50;85.00;;;;;;4984892;28;20225;-81
2021/06/26 04:01:26;;;;;;;13.80;10.32;;;18.40;85.00;;;;;;4985407;28;20195;-82
2021/06/26 04:03:51;;;;;;;13.03;9.20;;;18.40;85.00;;;;;;4987390;28;20189;-83
2021/06/26 04:06:17;;;;;;;11.60;10.07;;;18.50;85.10;;;;;;4981178;28;20422;-83
2021/06/26 04:08:43;;;;;;;13.37;9.57;;;18.50;85.10;;;;;;5005839;28;20564;-83
2021/06/26 04:11:09;;;;;;;14.10;9.97;;;18.40;84.90;;;;;;4988601;28;20649;-82
2021/06/26 04:13:35;;;;;;;13.95;10.77;;;18.40;84.80;;;;;;4985429;28;20465;-82
2021/06/26 04:16:01;;;;;;;15.07;9.37;;;18.40;84.70;;;;;;5002708;28;20175;-83
2021/06/26 04:18:26;;;;;;;16.07;9.53;;;18.40;84.70;;;;;;4984485;28;20414;-83
2021/06/26 04:20:52;;;;;;;12.87;9.20;;;18.50;84.70;;;;;;5002461;28;20190;-82
2021/06/26 04:23:18;;;;;;;13.80;10.13;;;18.50;84.60;;;;;;4983652;28;20180;-83
2021/06/26 04:25:44;;;;;;;14.40;11.20;;;18.50;84.60;;;;;;4983342;28;20175;-82
2021/06/26 04:28:11;;;;;;;15.80;10.57;;;18.40;84.50;;;;;;5000603;28;20172;-83
2021/06/26 04:30:37;;;;;;;14.68;11.13;;;18.50;84.50;;;;;;4982015;28;20552;-83
2021/06/26 04:33:04;;;;;;;15.25;11.18;;;18.50;84.40;;;;;;4982667;28;20332;-83
2021/06/26 04:35:30;;;;;;;15.48;11.88;;;18.50;84.00;;;;;;4981973;28;20320;-82
2021/06/26 04:37:56;;;;;;;12.85;10.20;;;18.50;83.90;;;;;;4981815;28;20274;-83
2021/06/26 04:40:22;;;;;;;18.25;10.80;;;18.70;83.50;;;;;;4981337;28;20282;-83
2021/06/26 04:42:48;;;;;;;17.90;11.10;;;18.80;83.00;;;;;;4990674;28;20670;-83
2021/06/26 04:45:14;;;;;;;16.40;12.87;;;18.90;82.50;;;;;;5000386;28;20449;-82
2021/06/26 04:47:42;;;;;;;32.28;19.65;;;18.90;81.90;;;;;;4983190;28;20411;-83
2021/06/26 04:50:09;;;;;;;33.95;21.50;;;18.90;82.10;;;;;;4983541;28;20647;-83
2021/06/26 04:52:36;;;;;;;41.53;26.02;;;18.80;82.60;;;;;;4981340;28;20211;-83
2021/06/26 04:55:03;;;;;;;39.10;27.15;;;18.90;83.00;;;;;;4998812;28;20210;-83
2021/06/26 04:57:29;;;;;;;48.97;29.08;;;18.90;83.00;;;;;;4999708;28;20171;-83
2021/06/26 04:59:55;;;;;;;47.15;29.08;;;19.00;83.00;;;;;;4981718;28;20182;-83
2021/06/26 05:02:21;;;;;;;53.90;30.07;;;19.00;83.00;;;;;;4980540;28;20553;-83
2021/06/26 05:04:46;;;;;;;47.33;30.73;;;19.00;83.30;;;;;;4998618;28;20174;-83
2021/06/26 05:07:12;;;;;;;54.27;29.07;;;19.10;83.10;;;;;;4980914;28;20407;-83
2021/06/26 05:09:38;;;;;;;48.13;30.17;;;19.10;83.00;;;;;;4997768;28;20186;-83
2021/06/26 05:12:07;;;;;;;46.03;29.87;;;19.10;83.00;;;;;;4980525;28;20861;-83
2021/06/26 05:14:32;;;;;;;45.17;28.98;;;19.10;82.80;;;;;;4981490;28;20276;-83
2021/06/26 05:16:58;;;;;;;48.23;31.73;;;19.10;82.50;;;;;;4980169;28;20702;-83
2021/06/26 05:19:24;;;;;;;50.37;30.07;;;19.10;82.50;;;;;;4998203;28;20189;-83
2021/06/26 05:21:50;;;;;;;47.50;27.30;;;19.00;82.50;;;;;;4980303;28;20202;-83
2021/06/26 05:24:16;;;;;;;44.80;29.80;;;19.10;82.60;;;;;;4979727;28;20186;-84
2021/06/26 05:26:42;;;;;;;41.08;26.90;;;19.10;82.60;;;;;;4979792;28;20432;-83
2021/06/26 05:29:08;;;;;;;47.65;27.30;;;19.10;82.50;;;;;;4979995;28;20717;-83
2021/06/26 05:31:33;;;;;;;52.47;29.67;;;19.10;82.40;;;;;;4980239;28;20195;-83
2021/06/26 05:33:59;;;;;;;50.60;31.53;;;19.20;82.40;;;;;;4980811;28;20203;-83
2021/06/26 05:36:25;;;;;;;53.80;31.97;;;19.10;82.50;;;;;;4981382;28;20198;-83
2021/06/26 05:38:51;;;;;;;52.30;30.07;;;19.10;82.40;;;;;;4983835;28;20182;-84
2021/06/26 05:41:17;;;;;;;54.67;30.83;;;19.10;82.30;;;;;;5000719;28;20466;-83
2021/06/26 05:43:43;;;;;;;48.33;29.35;;;19.10;82.50;;;;;;4983920;28;20179;-83
2021/06/26 05:46:09;;;;;;;51.23;31.70;;;19.30;82.70;;;;;;4985159;28;20186;-84
2021/06/26 05:48:35;;;;;;;49.45;29.48;;;19.40;82.40;;;;;;4991917;28;20180;-83
2021/06/26 05:51:00;;;;;;;44.57;25.27;;;19.50;81.60;;;;;;5002853;28;20203;-83
2021/06/26 05:53:26;;;;;;;39.53;25.80;;;19.60;80.70;;;;;;4986151;28;20215;-83
2021/06/26 05:55:58;;;;;;;44.87;27.87;;;19.60;80.10;;;;;;5001953;28;20700;-83
2021/06/26 05:58:30;;;;;;;47.42;29.30;;;19.70;80.10;;;;;;4983769;28;20234;-83
2021/06/26 06:00:56;;;;;;;48.45;28.42;;;19.70;79.80;;;;;;4982799;28;20199;-83
2021/06/26 06:03:22;;;;;;;50.22;27.15;;;19.60;80.00;;;;;;4982954;28;20575;-83
2021/06/26 06:05:50;;;;;;;48.87;30.07;;;19.70;80.10;;;;;;4982735;28;20183;-83
2021/06/26 06:08:16;;;;;;;57.45;32.05;;;19.70;80.10;;;;;;4982640;28;20179;-83
2021/06/26 06:10:42;;;;;;;51.00;29.77;;;19.70;80.10;;;;;;4982289;28;20187;-83
2021/06/26 06:13:16;;;;;;;49.50;30.03;;;19.90;79.30;;;;;;4998978;28;20662;-83
2021/06/26 06:15:47;;;;;;;46.25;29.35;;;19.90;78.70;;;;;;4981214;28;20274;-83
2021/06/26 06:18:13;;;;;;;47.70;28.63;;;19.70;78.90;;;;;;4982172;28;20580;-84
2021/06/26 06:20:40;;;;;;;55.00;31.65;;;19.60;79.10;;;;;;4985170;28;20210;-83
2021/06/26 06:23:07;;;;;;;47.17;30.48;;;19.70;79.10;;;;;;5003616;28;20250;-83
2021/06/26 06:25:34;;;;;;;45.33;30.90;;;19.60;79.40;;;;;;4985930;28;20205;-83
2021/06/26 06:28:01;;;;;;;49.55;29.00;;;19.80;79.20;;;;;;4985766;28;20242;-83
2021/06/26 06:30:28;;;;;;;44.00;28.95;;;19.90;79.10;;;;;;4984522;28;20255;-83
2021/06/26 06:32:53;;;;;;;47.08;29.50;;;20.00;78.80;;;;;;4980572;28;20643;-83
2021/06/26 06:35:19;;;;;;;40.23;27.63;;;20.10;78.70;;;;;;4980334;28;20182;-83
2021/06/26 06:37:45;;;;;;;49.83;31.00;;;20.20;78.70;;;;;;4983565;28;20183;-82
2021/06/26 06:40:14;;;;;;;49.13;26.40;;;20.50;77.60;;;;;;4981881;28;20179;-84
2021/06/26 06:42:41;;;;;;;48.58;28.17;;;20.40;77.30;;;;;;4998483;28;20187;-84
2021/06/26 06:45:08;;;;;;;41.60;27.50;;;20.40;77.30;;;;;;4981423;28;20183;-83
2021/06/26 06:47:34;;;;;;;44.95;24.80;;;20.60;76.00;;;;;;4981652;28;20181;-83
2021/06/26 06:50:00;;;;;;;48.23;27.40;;;20.70;75.90;;;;;;4980937;28;20273;-83
2021/06/26 06:52:26;;;;;;;37.83;23.80;;;20.70;75.50;;;;;;4987895;28;20514;-83
2021/06/26 06:54:51;;;;;;;42.37;25.87;;;20.80;75.30;;;;;;5006927;28;20261;-83
2021/06/26 06:57:23;;;;;;;41.70;23.80;;;20.80;75.10;;;;;;4983104;28;20631;-83
2021/06/26 06:59:49;;;;;;;41.70;23.95;;;20.70;75.50;;;;;;4982764;28;20186;-84
2021/06/26 07:02:16;;;;;;;45.20;26.73;;;20.70;75.30;;;;;;5000115;28;20218;-84
2021/06/26 07:04:42;;;;;;;49.88;27.67;;;20.70;75.50;;;;;;4983019;28;20187;-83
2021/06/26 07:07:08;;;;;;;47.35;29.20;;;20.70;75.40;;;;;;4982046;28;20179;-83
2021/06/26 07:09:33;;;;;;;47.10;29.30;;;20.50;75.40;;;;;;4982396;28;20183;-83
2021/06/26 07:11:59;;;;;;;44.67;27.90;;;20.60;75.40;;;;;;4982843;28;20222;-83
2021/06/26 07:14:26;;;;;;;48.20;27.50;;;20.60;75.90;;;;;;5003249;28;20202;-83
2021/06/26 07:16:51;;;;;;;52.63;28.70;;;20.70;76.20;;;;;;4987948;28;20434;-83
2021/06/26 07:19:17;;;;;;;53.93;28.80;;;20.80;76.40;;;;;;4986804;28;20191;-84
2021/06/26 07:21:43;;;;;;;44.60;26.50;;;20.90;76.20;;;;;;4984194;28;20199;-83
2021/06/26 07:24:09;;;;;;;47.93;28.20;;;21.00;75.80;;;;;;5001326;28;20203;-83
2021/06/26 07:26:34;;;;;;;43.97;28.00;;;21.00;75.50;;;;;;4983396;28;20933;-83
2021/06/26 07:29:01;;;;;;;48.00;27.40;;;21.00;75.20;;;;;;4982595;28;20214;-83
2021/06/26 07:31:26;;;;;;;42.80;27.53;;;21.20;75.30;;;;;;4981663;28;20465;-84
2021/06/26 07:33:52;;;;;;;39.70;25.87;;;21.60;74.40;;;;;;4999023;28;20941;-83
2021/06/26 07:36:18;;;;;;;40.93;23.70;;;21.70;73.30;;;;;;4980960;28;20430;-83
2021/06/26 07:38:45;;;;;;;43.83;27.53;;;22.00;72.70;;;;;;4981138;28;20301;-83
2021/06/26 07:41:10;;;;;;;43.87;27.97;;;21.90;71.70;;;;;;4980921;28;20445;-83
2021/06/26 07:43:36;;;;;;;36.17;26.37;;;21.90;72.10;;;;;;4981390;28;20924;-83
2021/06/26 07:46:03;;;;;;;37.70;24.70;;;22.00;71.00;;;;;;4980888;28;20187;-82
2021/06/26 07:48:29;;;;;;;40.60;27.37;;;22.00;71.00;;;;;;4998490;28;20456;-82
2021/06/26 07:50:56;;;;;;;40.37;26.50;;;21.80;71.00;;;;;;4980519;28;20502;-82
2021/06/26 07:53:22;;;;;;;38.27;27.50;;;22.00;71.30;;;;;;4981496;28;20497;-82
2021/06/26 07:55:51;;;;;;;39.17;26.80;;;22.10;70.50;;;;;;4980347;28;20460;-82
2021/06/26 07:58:22;;;;;;;40.83;28.03;;;21.90;70.60;;;;;;4986485;28;20453;-81
2021/06/26 08:00:48;;;;;;;40.03;26.77;;;22.20;69.90;;;;;;4980784;28;20442;-81
2021/06/26 08:03:15;;;;;;;46.07;27.20;;;22.30;68.70;;;;;;4980633;28;20447;-82
2021/06/26 08:05:41;;;;;;;40.10;26.27;;;22.60;68.20;;;;;;4997280;28;20913;-82
2021/06/26 08:08:07;;;;;;;42.13;28.17;;;22.70;68.50;;;;;;4979458;28;20418;-82
2021/06/26 08:10:33;;;;;;;41.37;28.63;;;22.70;68.20;;;;;;4979128;28;20441;-82
2021/06/26 08:12:59;;;;;;;36.37;27.13;;;22.80;67.90;;;;;;4979536;28;20230;-82
2021/06/26 08:15:24;;;;;;;42.43;30.50;;;23.20;67.00;;;;;;4978959;28;20418;-82
2021/06/26 08:17:50;;;;;;;39.40;28.80;;;23.40;65.50;;;;;;4979169;28;20190;-82
2021/06/26 08:20:16;;;;;;;39.97;29.07;;;23.60;65.60;;;;;;4979621;28;20213;-84
2021/06/26 08:22:41;;;;;;;39.13;28.83;;;24.00;65.00;;;;;;4979529;28;20198;-82
2021/06/26 08:25:08;;;;;;;36.17;28.50;;;24.30;63.20;;;;;;4997637;28;20179;-83
2021/06/26 08:27:33;;;;;;;36.87;28.40;;;24.50;62.00;;;;;;4980834;28;20190;-84
2021/06/26 08:29:59;;;;;;;39.03;30.23;;;24.20;62.40;;;;;;4998298;28;20423;-84
2021/06/26 08:32:25;;;;;;;39.73;28.43;;;24.20;62.10;;;;;;4980022;28;20202;-84
2021/06/26 08:34:51;;;;;;;36.77;29.03;;;24.50;61.70;;;;;;4998249;28;20458;-84
2021/06/26 08:37:16;;;;;;;36.73;30.63;;;24.70;61.10;;;;;;4979435;28;20203;-83
2021/06/26 08:39:42;;;;;;;40.03;29.73;;;24.60;61.30;;;;;;4998324;28;20175;-83
2021/06/26 08:42:08;;;;;;;33.60;27.33;;;24.60;61.20;;;;;;4981698;28;20737;-82
2021/06/26 08:44:34;;;;;;;43.53;28.33;;;24.70;60.40;;;;;;4983325;28;20185;-82
2021/06/26 08:47:00;;;;;;;37.67;29.27;;;24.70;60.20;;;;;;4983516;28;20415;-82
2021/06/26 08:49:26;;;;;;;42.13;29.67;;;24.10;61.70;;;;;;4983375;28;20429;-83
2021/06/26 08:51:54;;;;;;;40.63;29.90;;;24.10;62.50;;;;;;5000461;28;20438;-82
2021/06/26 08:54:21;;;;;;;41.77;29.07;;;24.20;61.90;;;;;;4997937;28;20462;-82
2021/06/26 08:56:48;;;;;;;41.53;30.60;;;24.40;61.20;;;;;;4980413;28;20733;-83
2021/06/26 08:59:16;;;;;;;38.47;27.47;;;24.40;61.10;;;;;;4997047;28;20425;-82
2021/06/26 09:01:43;;;;;;;41.97;29.50;;;24.40;62.00;;;;;;4996836;28;20454;-82
2021/06/26 09:04:15;;;;;;;40.83;30.30;;;24.40;62.50;;;;;;4984829;28;20446;-82
2021/06/26 09:06:56;;;;;;;36.67;30.60;;;24.40;62.50;;;;;;4981072;28;20474;-82
2021/06/26 09:09:36;;;;;;;42.10;30.60;;;24.30;62.50;;;;;;4980604;28;20754;-83
2021/06/26 09:12:05;;;;;;;34.30;28.67;;;24.50;62.40;;;;;;4980865;28;20453;-83
2021/06/26 09:14:31;;;;;;;39.90;30.10;;;24.60;62.00;;;;;;4983960;28;20461;-82
2021/06/26 09:16:57;;;;;;;36.83;28.63;;;24.60;62.20;;;;;;4983403;28;20964;-83
2021/06/26 09:19:23;;;;;;;45.50;29.90;;;24.90;61.40;;;;;;4983967;28;20414;-82
2021/06/26 09:21:57;;;;;;;38.47;29.67;;;25.10;60.00;;;;;;4982871;28;20198;-83
2021/06/26 09:24:23;;;;;;;36.03;30.60;;;25.40;59.40;;;;;;5001183;28;20932;-83
2021/06/26 09:26:59;;;;;;;38.03;30.27;;;25.40;57.60;;;;;;4983674;28;20423;-82
2021/06/26 09:29:26;;;;;;;35.93;29.43;;;25.50;58.00;;;;;;5001420;28;20414;-83
2021/06/26 09:31:57;;;;;;;32.93;26.53;;;25.40;57.00;;;;;;4983073;28;20449;-83
2021/06/26 09:34:36;;;;;;;32.40;26.23;;;25.60;55.80;;;;;;4983482;28;21052;-82
2021/06/26 09:37:04;;;;;;;38.67;28.60;;;25.80;56.30;;;;;;4983616;28;20418;-82
2021/06/26 09:39:39;;;;;;;41.33;28.00;;;25.70;56.40;;;;;;4983659;28;20518;-83
2021/06/26 09:42:25;;;;;;;36.80;30.90;;;25.70;57.00;;;;;;4983369;28;20441;-82
2021/06/26 09:44:53;;;;;;;40.07;31.17;;;26.00;57.90;;;;;;4983346;28;20449;-83
2021/06/26 09:47:25;;;;;;;39.53;31.20;;;26.40;56.90;;;;;;5001390;28;20427;-83
2021/06/26 09:49:51;;;;;;;40.70;31.23;;;26.30;56.70;;;;;;4984648;28;20470;-83
2021/06/26 09:52:17;;;;;;;44.63;34.00;;;26.30;56.60;;;;;;4983311;28;20437;-82
2021/06/26 09:54:42;;;;;;;38.87;30.80;;;25.90;56.70;;;;;;4983486;28;20461;-83
2021/06/26 09:57:09;;;;;;;43.63;30.30;;;25.80;57.00;;;;;;4983848;28;20710;-82
2021/06/26 09:59:35;;;;;;;36.20;29.53;;;25.80;57.20;;;;;;5000212;28;20220;-82
2021/06/26 10:02:01;;;;;;;40.57;30.27;;;25.90;56.30;;;;;;4982170;28;20474;-82
2021/06/26 10:04:28;;;;;;;49.33;35.20;;;25.90;56.50;;;;;;4982416;28;20425;-82
2021/06/26 10:06:54;;;;;;;47.03;32.20;;;25.10;57.90;;;;;;4982112;28;20458;-82
2021/06/26 10:09:20;;;;;;;41.53;33.07;;;24.70;59.90;;;;;;4986622;28;20425;-82
2021/06/26 10:11:48;;;;;;;50.20;31.60;;;24.20;61.10;;;;;;4982642;28;20473;-82
2021/06/26 10:14:14;;;;;;;45.63;33.67;;;24.30;61.60;;;;;;4998922;28;20889;-83
2021/06/26 10:16:42;;;;;;;44.63;34.03;;;24.40;62.20;;;;;;4982046;28;20434;-82
2021/06/26 10:19:11;;;;;;;42.40;32.27;;;24.30;62.80;;;;;;4982718;28;20427;-83
2021/06/26 10:21:43;;;;;;;47.00;35.17;;;24.40;62.80;;;;;;4982177;28;20446;-82
2021/06/26 10:24:15;;;;;;;46.20;34.00;;;24.60;62.40;;;;;;4981989;28;20418;-82
2021/06/26 10:26:43;;;;;;;43.27;31.90;;;24.60;62.50;;;;;;4982569;28;20429;-83
2021/06/26 10:29:09;;;;;;;41.33;31.40;;;24.80;62.00;;;;;;4982701;28;20426;-83
2021/06/26 10:31:43;;;;;;;45.63;31.70;;;25.20;60.90;;;;;;4981966;28;20434;-82
2021/06/26 10:34:19;;;;;;;38.57;30.93;;;25.80;59.60;;;;;;4982951;28;20534;-82
2021/06/26 10:36:54;;;;;;;46.37;33.70;;;26.30;58.80;;;;;;4983044;28;20416;-83
2021/06/26 10:39:30;;;;;;;54.00;34.87;;;26.60;57.30;;;;;;4982728;28;20422;-82
2021/06/26 10:42:05;;;;;;;41.47;33.27;;;26.80;55.90;;;;;;4999333;28;20448;-83
2021/06/26 10:44:49;;;;;;;45.37;31.93;;;27.00;55.50;;;;;;4980240;28;20444;-82
2021/06/26 10:47:16;;;;;;;45.87;35.77;;;27.40;55.20;;;;;;4982552;28;20513;-83
2021/06/26 10:49:42;;;;;;;40.53;32.83;;;27.20;54.00;;;;;;4982667;28;20431;-83
2021/06/26 10:52:27;;;;;;;41.67;35.07;;;27.30;54.10;;;;;;4982653;28;20438;-83
2021/06/26 10:54:57;;;;;;;42.50;32.67;;;27.50;52.70;;;;;;4982555;28;20497;-83
2021/06/26 10:57:25;;;;;;;41.57;31.90;;;27.60;50.60;;;;;;4982861;28;20437;-83
2021/06/26 10:59:59;;;;;;;33.50;28.93;;;27.80;50.20;;;;;;4980418;28;20918;-86
2021/06/26 11:02:41;;;;;;;31.87;28.13;;;27.60;49.80;;;;;;4941547;28;1174925;-86
2021/06/26 11:05:08;;;;;;;33.17;27.47;;;27.90;49.70;;;;;;4987278;28;20179;-86
2021/06/26 11:07:35;;;;;;;32.20;25.97;;;28.20;51.10;;;;;;4989241;28;20408;-86
2021/06/26 11:10:10;;;;;;;32.60;26.23;;;28.30;51.30;;;;;;4988281;28;20437;-86
2021/06/26 11:12:45;;;;;;;34.03;26.77;;;28.50;50.70;;;;;;4988990;28;20453;-86
2021/06/26 11:15:12;;;;;;;28.90;23.70;;;28.60;49.10;;;;;;4989696;28;20453;-86
2021/06/26 11:17:40;;;;;;;28.33;25.30;;;28.70;49.10;;;;;;4986675;28;21017;-86
2021/06/26 11:20:18;;;;;;;30.90;27.40;;;28.70;47.30;;;;;;4986894;28;20480;-86
2021/06/26 11:23:04;;;;;;;31.67;25.63;;;28.50;47.00;;;;;;4989443;28;20470;-85
2021/06/26 11:25:31;;;;;;;29.00;24.50;;;28.20;48.30;;;;;;4983548;28;20423;-86
2021/06/26 11:28:17;;;;;;;30.00;23.93;;;28.20;48.40;;;;;;4965623;28;20427;-86
2021/06/26 11:30:56;;;;;;;30.37;21.47;;;27.90;49.00;;;;;;4969231;28;20423;-85
2021/06/26 11:33:31;;;;;;;26.87;22.40;;;28.20;49.60;;;;;;4968073;28;20462;-85
2021/06/26 11:35:57;;;;;;;27.37;21.17;;;28.40;46.90;;;;;;4962685;28;20432;-85
2021/06/26 11:38:23;;;;;;;24.83;21.13;;;28.30;46.10;;;;;;4961426;28;20520;-85
2021/06/26 11:40:51;;;;;;;24.33;21.83;;;28.20;46.90;;;;;;4959554;28;20521;-86
2021/06/26 11:43:17;;;;;;;28.20;23.10;;;27.80;46.30;;;;;;4996692;28;20430;-86
2021/06/26 11:45:46;;;;;;;24.90;21.07;;;27.80;47.30;;;;;;4979038;28;20423;-85
2021/06/26 11:48:12;;;;;;;27.00;24.10;;;27.90;48.30;;;;;;4979926;28;20501;-86
2021/06/26 11:50:50;;;;;;;30.50;23.03;;;28.00;48.40;;;;;;4978937;28;20512;-86
2021/06/26 11:53:17;;;;;;;38.40;31.83;;;28.10;48.00;;;;;;4979636;28;20556;-86
2021/06/26 11:55:56;;;;;;;32.03;27.47;;;27.50;49.10;;;;;;4979438;28;20920;-85
2021/06/26 11:58:23;;;;;;;25.70;21.50;;;27.20;49.70;;;;;;4979692;28;20414;-85
2021/06/26 12:01:10;;;;;;;26.43;23.40;;;27.50;49.10;;;;;;4979414;28;20442;-86
2021/06/26 12:03:36;;;;;;;28.33;25.30;;;27.50;49.30;;;;;;4979159;28;20805;-86
2021/06/26 12:06:20;;;;;;;26.73;22.67;;;27.50;48.60;;;;;;4980993;28;20388;-85
2021/06/26 12:08:47;;;;;;;28.77;23.90;;;27.70;49.40;;;;;;4982320;28;20426;-85
2021/06/26 12:11:21;;;;;;;32.40;23.80;;;27.90;50.00;;;;;;4981175;28;20945;-85
2021/06/26 12:13:49;;;;;;;28.37;24.47;;;27.90;50.00;;;;;;4981469;28;20485;-84
2021/06/26 12:16:22;;;;;;;24.80;22.13;;;28.00;50.70;;;;;;4981918;28;20478;-84
2021/06/26 12:18:48;;;;;;;22.73;20.37;;;28.10;49.90;;;;;;5001615;28;20422;-85
2021/06/26 12:21:13;;;;;;;30.33;24.97;;;28.30;49.60;;;;;;4985840;28;20416;-86
2021/06/26 12:23:50;;;;;;;27.03;21.30;;;28.60;49.10;;;;;;4979708;28;20250;-86
2021/06/26 12:26:24;;;;;;;25.63;23.13;;;28.60;48.10;;;;;;4978371;28;20182;-86
2021/06/26 12:28:50;;;;;;;26.20;22.33;;;28.80;46.00;;;;;;4978155;28;20438;-86